Time;durP1;ratioP1;P1;durP2;ratioP2;P2;SDS_P1;SDS_P2;PMS_P1;PMS_P2;Temp;Humidity;BMP_temperature;BMP_pressure;BME280_temperature;BME280_humidity;BME280_pressure;Samples;Min_cycle;Max_cycle;Signal;HPM_P1;HPM_P2
2023/08/25 00:03:00;;;;;;;13.17;11.87;;;;;;;19.98;100.00;97469.44;6191465;28;20236;-55
2023/08/25 00:06:03;;;;;;;12.23;11.13;;;;;;;19.99;100.00;97492.66;6186633;28;20213;-56
2023/08/25 00:09:05;;;;;;;14.40;11.63;;;;;;;20.03;100.00;97533.41;6211449;28;20220;-56
2023/08/25 00:12:07;;;;;;;14.77;13.17;;;;;;;20.05;100.00;97661.81;6193953;28;20212;-56
2023/08/25 00:15:10;;;;;;;13.57;12.27;;;;;;;20.17;100.00;97831.69;6194112;28;20309;-57
2023/08/25 00:18:12;;;;;;;19.63;15.80;;;;;;;21.69;100.00;97815.88;6203259;28;21652;-55
2023/08/25 00:21:15;;;;;;;10.90;6.20;;;;;;;22.18;88.51;97821.41;6191616;28;20261;-58
2023/08/25 00:24:17;;;;;;;253.37;22.07;;;;;;;22.73;74.78;97786.38;6199199;28;22117;-58
2023/08/25 00:27:20;;;;;;;7.60;2.13;;;;;;;22.87;71.34;97759.88;6191892;28;20213;-56
2023/08/25 00:30:23;;;;;;;5.90;1.33;;;;;;;23.01;68.29;97759.75;6199786;28;20242;-58
2023/08/25 00:33:29;;;;;;;3.07;1.50;;;;;;;23.28;65.91;97755.06;6193310;28;20262;-58
2023/08/25 00:36:31;;;;;;;9.07;1.20;;;;;;;23.10;65.96;97735.25;6195096;28;20314;-56
2023/08/25 00:39:33;;;;;;;4.73;1.30;;;;;;;23.04;65.37;97722.97;6191579;28;20236;-57
2023/08/25 00:42:36;;;;;;;2.40;1.10;;;;;;;23.03;64.65;97729.50;6179655;28;20843;-56
2023/08/25 00:45:41;;;;;;;4.10;0.90;;;;;;;22.95;65.58;97706.66;6191113;28;20588;-58
2023/08/25 00:48:43;;;;;;;4.63;0.83;;;;;;;23.00;63.62;97705.69;6188524;28;20299;-58
2023/08/25 00:51:46;;;;;;;4.03;0.60;;;;;;;23.08;63.90;97711.13;6193609;28;20591;-57
2023/08/25 00:54:51;;;;;;;1.53;0.70;;;;;;;23.02;64.33;97727.94;6194094;28;20232;-57
2023/08/25 00:57:58;;;;;;;2.47;0.98;;;;;;;22.73;66.59;97710.34;6208803;28;20319;-59
2023/08/25 01:01:05;;;;;;;0.67;0.60;;;;;;;22.63;66.28;97725.03;6188314;28;20592;-58
2023/08/25 01:04:08;;;;;;;2.05;0.70;;;;;;;22.81;63.27;97695.16;6191461;28;20244;-59
2023/08/25 01:07:10;;;;;;;1.40;0.80;;;;;;;22.75;63.47;97701.84;6200329;28;20839;-58
2023/08/25 01:10:15;;;;;;;1.03;0.80;;;;;;;22.66;65.02;97694.53;6182423;28;20232;-58
2023/08/25 01:13:40;;;;;;;1.47;1.00;;;;;;;22.68;63.60;97675.19;6202915;28;20233;-58
2023/08/25 01:16:57;;;;;;;1.17;0.90;;;;;;;22.63;65.34;97662.56;6192118;28;20247;-58
2023/08/25 01:20:08;;;;;;;2.72;0.85;;;;;;;22.81;61.27;97657.13;6207750;28;20229;-58
2023/08/25 01:23:46;;;;;;;1.45;0.70;;;;;;;22.73;63.01;97644.34;6195795;28;20228;-58
2023/08/25 01:26:52;;;;;;;1.45;0.80;;;;;;;22.50;65.50;97613.88;6197787;28;20320;-57
2023/08/25 01:29:57;;;;;;;1.40;0.60;;;;;;;22.38;66.08;97614.53;6198968;28;20248;-58
2023/08/25 01:33:03;;;;;;;2.50;0.95;;;;;;;22.24;66.86;97603.03;6195467;28;20238;-58
2023/08/25 01:36:14;;;;;;;1.57;0.80;;;;;;;22.15;66.24;97592.16;6201898;28;20229;-57
2023/08/25 01:39:20;;;;;;;1.27;0.70;;;;;;;22.26;64.75;97585.28;6194992;28;20233;-58
2023/08/25 01:42:30;;;;;;;1.60;0.70;;;;;;;22.30;66.09;97580.03;6194788;28;20221;-58
2023/08/25 01:45:37;;;;;;;2.27;0.60;;;;;;;22.65;61.92;97572.63;6194117;28;20236;-57
2023/08/25 01:48:43;;;;;;;2.35;0.70;;;;;;;22.61;62.54;97560.81;6195084;28;20262;-57
2023/08/25 01:51:50;;;;;;;2.17;1.00;;;;;;;22.57;63.30;97557.19;6199837;28;20237;-57
2023/08/25 01:54:56;;;;;;;1.08;0.80;;;;;;;22.55;62.80;97551.25;6191298;28;20251;-57
2023/08/25 01:58:02;;;;;;;1.75;0.88;;;;;;;22.66;62.29;97536.22;6198565;28;20237;-58
2023/08/25 02:01:12;;;;;;;4.43;0.97;;;;;;;22.73;61.22;97535.72;6195267;28;20233;-58
2023/08/25 02:04:15;;;;;;;0.60;0.60;;;;;;;22.81;59.64;97519.41;6196400;28;20233;-57
2023/08/25 02:07:19;;;;;;;2.30;0.60;;;;;;;23.29;58.13;97518.22;6197084;28;20268;-57
2023/08/25 02:10:24;;;;;;;1.77;0.63;;;;;;;23.22;58.29;97498.94;6192912;28;20369;-57
2023/08/25 02:13:31;;;;;;;1.02;0.80;;;;;;;23.09;59.48;97486.38;6193356;28;20240;-57
2023/08/25 02:16:35;;;;;;;1.58;0.60;;;;;;;23.10;58.58;97472.47;6197885;28;20232;-57
2023/08/25 02:19:38;;;;;;;1.15;0.70;;;;;;;22.95;59.44;97483.09;6194259;28;20232;-58
2023/08/25 02:22:41;;;;;;;3.83;1.17;;;;;;;22.77;61.25;97491.31;6193074;28;20243;-57
2023/08/25 02:25:43;;;;;;;1.53;0.77;;;;;;;22.77;60.57;97480.44;6195457;28;20236;-57
2023/08/25 02:28:45;;;;;;;2.67;0.80;;;;;;;22.62;62.37;97475.53;6194891;28;20258;-56
2023/08/25 02:31:48;;;;;;;1.10;0.70;;;;;;;22.54;62.54;97450.00;6195791;28;20237;-56
2023/08/25 02:34:50;;;;;;;2.40;0.60;;;;;;;22.49;62.55;97439.31;6198965;28;20243;-58
2023/08/25 02:37:59;;;;;;;1.07;0.73;;;;;;;22.55;61.78;97429.88;6194046;28;20252;-57
2023/08/25 02:41:01;;;;;;;1.90;1.00;;;;;;;22.62;61.28;97423.97;6191371;28;20233;-57
2023/08/25 02:44:04;;;;;;;1.60;0.60;;;;;;;22.51;62.07;97417.28;6195596;28;20236;-57
2023/08/25 02:47:06;;;;;;;1.70;0.77;;;;;;;22.38;63.29;97414.47;6200791;28;20243;-57
2023/08/25 02:50:09;;;;;;;0.93;0.70;;;;;;;22.29;64.80;97418.31;6196440;28;20225;-57
2023/08/25 02:53:11;;;;;;;2.43;0.70;;;;;;;22.10;66.58;97397.75;6193304;28;20229;-57
2023/08/25 02:56:14;;;;;;;1.33;0.80;;;;;;;22.11;64.47;97412.13;6193109;28;20237;-58
2023/08/25 02:59:16;;;;;;;1.23;0.80;;;;;;;22.11;65.67;97425.72;6193743;28;20228;-58
2023/08/25 03:02:19;;;;;;;2.93;0.60;;;;;;;21.97;66.65;97444.88;6190350;28;20229;-57
2023/08/25 03:05:22;;;;;;;2.88;0.80;;;;;;;21.89;64.42;97432.91;6195005;28;20217;-58
2023/08/25 03:08:25;;;;;;;0.73;0.60;;;;;;;22.26;63.04;97473.22;6191938;28;20232;-56
2023/08/25 03:11:27;;;;;;;0.67;0.63;;;;;;;22.34;62.61;97486.78;6191447;28;20256;-57
2023/08/25 03:14:30;;;;;;;0.77;0.63;;;;;;;22.27;63.66;97486.50;6207220;28;20239;-58
2023/08/25 03:17:32;;;;;;;1.27;0.60;;;;;;;22.24;64.73;97468.13;6192306;28;20237;-57
2023/08/25 03:20:35;;;;;;;0.73;0.53;;;;;;;22.15;64.81;97480.91;6189704;28;20349;-57
2023/08/25 03:23:38;;;;;;;1.27;0.60;;;;;;;22.05;66.55;97500.22;6194623;28;20312;-57
2023/08/25 03:26:40;;;;;;;1.17;0.70;;;;;;;21.97;66.70;97501.00;6192099;28;20244;-56
2023/08/25 03:29:44;;;;;;;2.33;0.90;;;;;;;21.95;65.32;97523.03;6189065;28;20259;-58
2023/08/25 03:32:46;;;;;;;1.73;0.60;;;;;;;21.96;64.76;97538.19;6200235;28;20235;-58
2023/08/25 03:35:49;;;;;;;1.25;0.75;;;;;;;22.00;65.23;97538.38;6193290;28;20224;-58
2023/08/25 03:38:53;;;;;;;0.50;0.50;;;;;;;21.99;65.44;97539.47;6197205;28;20259;-57
2023/08/25 03:41:55;;;;;;;1.37;0.80;;;;;;;21.90;66.39;97545.69;6192478;28;20241;-58
2023/08/25 03:44:57;;;;;;;1.80;0.60;;;;;;;21.78;68.43;97583.50;6179353;28;20232;-57
2023/08/25 03:48:01;;;;;;;2.83;0.63;;;;;;;21.63;70.32;97584.75;6192290;28;20220;-56
2023/08/25 03:51:03;;;;;;;0.80;0.70;;;;;;;21.47;70.67;97602.56;6191596;28;20590;-58
2023/08/25 03:54:10;;;;;;;1.00;0.70;;;;;;;21.40;71.63;97625.81;6189830;28;20273;-57
2023/08/25 03:57:13;;;;;;;1.37;0.57;;;;;;;21.34;72.07;97636.81;6175683;28;20674;-57
2023/08/25 04:00:15;;;;;;;1.63;0.80;;;;;;;21.32;71.85;97641.72;6215436;28;20292;-57
2023/08/25 04:03:17;;;;;;;0.63;0.53;;;;;;;21.32;72.57;97649.84;6215447;28;20216;-57
2023/08/25 04:06:20;;;;;;;0.57;0.50;;;;;;;21.29;73.37;97647.75;6218633;28;20247;-58
2023/08/25 04:09:23;;;;;;;0.60;0.60;;;;;;;21.22;73.37;97649.28;6216741;28;20228;-58
2023/08/25 04:12:29;;;;;;;1.37;0.80;;;;;;;21.16;72.48;97659.47;6218774;28;20227;-57
2023/08/25 04:15:32;;;;;;;3.03;0.90;;;;;;;21.11;73.70;97649.56;6230666;28;20236;-56
2023/08/25 04:18:35;;;;;;;1.13;0.50;;;;;;;21.08;73.76;97658.34;6235965;28;20282;-57
2023/08/25 04:21:37;;;;;;;2.30;0.80;;;;;;;20.97;74.93;97648.06;6290842;28;20229;-57
2023/08/25 04:24:39;;;;;;;0.77;0.60;;;;;;;20.93;75.01;97633.53;6196189;28;20248;-57
2023/08/25 04:27:41;;;;;;;1.53;0.73;;;;;;;20.83;76.20;97631.88;6281161;28;20228;-57
2023/08/25 04:30:44;;;;;;;1.20;0.90;;;;;;;20.72;76.64;97631.34;6188742;28;20233;-57
2023/08/25 04:33:58;;;;;;;1.60;0.80;;;;;;;20.67;77.18;97615.22;6195435;28;20240;-57
2023/08/25 04:37:01;;;;;;;0.70;0.70;;;;;;;20.54;77.67;97592.53;6190249;28;20239;-57
2023/08/25 04:40:04;;;;;;;1.20;0.70;;;;;;;20.63;77.76;97610.72;6190891;28;20229;-56
2023/08/25 04:43:07;;;;;;;0.63;0.60;;;;;;;20.60;78.22;97612.16;6200379;28;20231;-57
2023/08/25 04:46:11;;;;;;;0.77;0.50;;;;;;;20.52;77.80;97602.06;6195136;28;20229;-57
2023/08/25 04:49:13;;;;;;;1.43;0.70;;;;;;;20.53;78.35;97606.38;6194947;28;20247;-57
2023/08/25 04:52:15;;;;;;;0.70;0.70;;;;;;;20.47;79.48;97602.19;6200356;28;20848;-57
2023/08/25 04:55:18;;;;;;;2.43;0.73;;;;;;;20.46;79.70;97605.97;6198914;28;20224;-57
2023/08/25 04:58:20;;;;;;;0.73;0.60;;;;;;;20.42;80.39;97594.97;6198586;28;20272;-57
2023/08/25 05:01:25;;;;;;;3.70;1.00;;;;;;;20.24;80.91;97566.97;6194323;28;20379;-56
2023/08/25 05:04:27;;;;;;;1.53;0.60;;;;;;;20.30;81.25;97595.53;6194535;28;20241;-57
2023/08/25 05:07:30;;;;;;;2.20;0.90;;;;;;;20.25;81.12;97601.06;6195947;28;20243;-57
2023/08/25 05:10:32;;;;;;;0.70;0.60;;;;;;;20.23;80.98;97605.16;6195813;28;20668;-56
2023/08/25 05:13:35;;;;;;;1.53;0.53;;;;;;;20.24;81.47;97604.84;6190654;28;20721;-56
2023/08/25 05:16:39;;;;;;;1.90;0.63;;;;;;;20.22;81.69;97600.84;6191910;28;20235;-57
2023/08/25 05:19:49;;;;;;;1.53;0.60;;;;;;;20.17;81.96;97609.88;6196599;28;20725;-57
2023/08/25 05:22:52;;;;;;;2.43;0.77;;;;;;;20.17;82.80;97607.19;6198351;28;20235;-56
2023/08/25 05:25:56;;;;;;;1.73;0.80;;;;;;;20.16;82.78;97613.72;6192765;28;20310;-57
2023/08/25 05:28:59;;;;;;;1.07;0.70;;;;;;;20.14;83.37;97604.28;6194956;28;20789;-55
2023/08/25 05:32:02;;;;;;;0.70;0.70;;;;;;;20.16;83.53;97621.03;6188280;28;20229;-57
2023/08/25 05:35:33;;;;;;;1.47;0.83;;;;;;;20.17;83.67;97625.31;6196678;28;20251;-57
2023/08/25 05:38:35;;;;;;;0.73;0.60;;;;;;;20.16;84.27;97611.00;6194374;28;20249;-57
2023/08/25 05:41:38;;;;;;;2.97;0.70;;;;;;;20.18;83.97;97616.91;6194245;28;20224;-57
2023/08/25 05:44:40;;;;;;;1.47;0.60;;;;;;;20.20;84.37;97608.50;6193003;28;20244;-57
2023/08/25 05:47:43;;;;;;;1.53;1.03;;;;;;;20.20;84.63;97600.38;6191444;28;20762;-57
2023/08/25 05:50:45;;;;;;;1.00;0.90;;;;;;;20.18;84.90;97607.97;6191116;28;20701;-57
2023/08/25 05:53:48;;;;;;;3.00;0.70;;;;;;;20.21;85.30;97612.78;6205275;28;20224;-58
2023/08/25 05:56:54;;;;;;;1.60;0.83;;;;;;;20.23;85.37;97605.97;6192513;28;20239;-57
2023/08/25 05:59:58;;;;;;;1.20;0.60;;;;;;;20.16;85.85;97602.88;6194811;28;20603;-58
2023/08/25 06:03:03;;;;;;;1.30;0.70;;;;;;;20.30;85.53;97613.66;6194896;28;20718;-57
2023/08/25 06:06:05;;;;;;;0.80;0.60;;;;;;;20.32;85.84;97614.16;6198419;28;20255;-54
2023/08/25 06:09:09;;;;;;;1.33;0.83;;;;;;;20.35;86.18;97616.25;6195788;28;20244;-54
2023/08/25 06:12:13;;;;;;;0.60;0.60;;;;;;;20.35;86.59;97608.13;6197585;28;20209;-55
2023/08/25 06:15:21;;;;;;;0.90;0.90;;;;;;;20.35;86.33;97595.41;6195851;28;20273;-54
2023/08/25 06:18:34;;;;;;;1.27;0.80;;;;;;;20.35;86.79;97598.09;6191096;28;20259;-56
2023/08/25 06:21:45;;;;;;;1.97;0.60;;;;;;;20.35;87.67;97603.53;6191370;28;20225;-56
2023/08/25 06:24:53;;;;;;;0.90;0.90;;;;;;;20.39;87.45;97600.19;6190764;28;20235;-56
2023/08/25 06:27:59;;;;;;;2.40;0.73;;;;;;;20.41;87.34;97592.56;6194527;28;20260;-55
2023/08/25 06:31:08;;;;;;;3.03;0.90;;;;;;;20.42;87.03;97597.66;6194969;28;20681;-56
2023/08/25 06:34:11;;;;;;;1.33;0.83;;;;;;;20.46;86.80;97604.06;6192070;28;20232;-55
2023/08/25 06:37:13;;;;;;;2.60;1.37;;;;;;;20.51;87.31;97592.34;6193495;28;20247;-56
2023/08/25 06:40:15;;;;;;;1.57;0.80;;;;;;;20.48;87.29;97596.47;6193642;28;20241;-55
2023/08/25 06:43:18;;;;;;;1.80;1.00;;;;;;;20.54;88.37;97594.44;6196249;28;20237;-54
2023/08/25 06:46:20;;;;;;;0.83;0.80;;;;;;;20.60;88.19;97601.34;6192664;28;20329;-56
2023/08/25 06:49:22;;;;;;;3.60;1.97;;;;;;;20.68;87.40;97595.16;6196079;28;20373;-56
2023/08/25 06:52:24;;;;;;;2.60;1.40;;;;;;;20.80;86.92;97591.91;6192832;28;20319;-56
2023/08/25 06:55:27;;;;;;;4.17;1.80;;;;;;;20.93;86.68;97588.28;6190418;28;20239;-56
2023/08/25 06:58:30;;;;;;;2.33;2.13;;;;;;;21.10;86.08;97568.63;6195704;28;20239;-56
2023/08/25 07:01:32;;;;;;;2.37;2.17;;;;;;;21.25;84.96;97576.31;6191438;28;20232;-57
2023/08/25 07:04:38;;;;;;;4.53;2.10;;;;;;;21.44;84.12;97575.31;6193395;28;20366;-56
2023/08/25 07:07:42;;;;;;;4.67;2.70;;;;;;;21.62;83.32;97566.06;6189223;28;20318;-56
2023/08/25 07:10:46;;;;;;;6.30;4.80;;;;;;;21.79;83.19;97562.59;6194273;28;20233;-57
2023/08/25 07:13:48;;;;;;;4.87;3.77;;;;;;;21.96;83.46;97559.09;6194070;28;20256;-57
2023/08/25 07:16:51;;;;;;;5.40;2.57;;;;;;;22.05;81.88;97551.75;6192123;28;20275;-55
2023/08/25 07:19:55;;;;;;;4.47;2.60;;;;;;;22.35;79.50;97560.88;6189629;28;20229;-56
2023/08/25 07:22:59;;;;;;;4.60;2.33;;;;;;;22.46;79.16;97564.03;6193087;28;20321;-56
2023/08/25 07:26:01;;;;;;;7.30;2.77;;;;;;;22.51;78.46;97559.28;6189176;28;20281;-55
2023/08/25 07:29:04;;;;;;;3.10;2.30;;;;;;;22.61;78.05;97563.53;6191194;28;20240;-56
2023/08/25 07:32:06;;;;;;;4.78;2.60;;;;;;;22.75;77.42;97568.78;6193412;28;20316;-56
2023/08/25 07:35:08;;;;;;;5.40;2.60;;;;;;;22.86;77.97;97568.13;6192422;28;20287;-56
2023/08/25 07:38:11;;;;;;;2.78;2.50;;;;;;;23.01;77.48;97572.25;6192038;28;20236;-55
2023/08/25 07:41:17;;;;;;;5.60;2.63;;;;;;;23.10;76.92;97572.19;6193495;28;20317;-57
2023/08/25 07:44:19;;;;;;;4.63;2.92;;;;;;;23.23;76.23;97567.69;6192686;28;20619;-55
2023/08/25 07:47:22;;;;;;;4.28;3.10;;;;;;;23.34;77.11;97566.19;6195692;28;20308;-55
2023/08/25 07:50:25;;;;;;;3.60;2.60;;;;;;;23.45;76.83;97562.00;6189099;28;20241;-57
2023/08/25 07:53:29;;;;;;;4.68;2.90;;;;;;;23.59;76.01;97559.00;6195278;28;20321;-57
2023/08/25 07:56:32;;;;;;;4.03;3.63;;;;;;;23.74;71.31;97561.16;6190519;28;20600;-57
2023/08/25 07:59:34;;;;;;;6.28;3.60;;;;;;;23.88;72.05;97563.63;6189789;28;20229;-56
2023/08/25 08:02:36;;;;;;;5.43;3.13;;;;;;;23.94;71.60;97556.91;6191781;28;20232;-56
2023/08/25 08:05:39;;;;;;;9.15;3.70;;;;;;;24.08;70.62;97543.78;6193025;28;20248;-56
2023/08/25 08:08:43;;;;;;;7.10;4.03;;;;;;;24.19;71.41;97553.16;6192820;28;20236;-56
2023/08/25 08:11:46;;;;;;;6.38;3.35;;;;;;;24.17;72.13;97530.09;6190410;28;20220;-57
2023/08/25 08:14:48;;;;;;;9.32;5.57;;;;;;;24.33;71.92;97536.50;6195663;28;20236;-56
2023/08/25 08:17:50;;;;;;;11.85;10.70;;;;;;;24.36;72.08;97541.34;6196014;28;20232;-54
2023/08/25 08:20:55;;;;;;;8.20;5.78;;;;;;;24.41;72.09;97548.50;6197901;28;20267;-56
2023/08/25 08:24:00;;;;;;;8.02;4.47;;;;;;;24.51;72.34;97555.44;6195736;28;20228;-56
2023/08/25 08:27:03;;;;;;;5.95;4.65;;;;;;;24.56;72.09;97553.31;6193905;28;20617;-56
2023/08/25 08:30:06;;;;;;;8.70;4.78;;;;;;;24.56;72.07;97555.25;6198302;28;20229;-55
2023/08/25 08:33:09;;;;;;;7.63;4.50;;;;;;;24.75;70.23;97557.44;6194486;28;20229;-56
2023/08/25 08:36:11;;;;;;;7.15;4.88;;;;;;;24.88;70.46;97551.69;6197378;28;20221;-56
2023/08/25 08:39:15;;;;;;;5.43;4.40;;;;;;;25.00;70.18;97563.75;6193533;28;20217;-56
2023/08/25 08:42:18;;;;;;;12.68;5.00;;;;;;;25.07;70.11;97558.53;6200265;28;20240;-56
2023/08/25 08:45:24;;;;;;;8.32;4.10;;;;;;;25.18;68.87;97565.16;6192266;28;20237;-56
2023/08/25 08:48:27;;;;;;;6.68;4.55;;;;;;;25.20;69.89;97557.41;6192911;28;20236;-55
2023/08/25 08:51:31;;;;;;;4.43;3.97;;;;;;;25.18;71.38;97552.31;6195321;28;21030;-56
2023/08/25 08:54:40;;;;;;;8.50;3.95;;;;;;;25.23;72.18;97561.41;6197075;28;20237;-55
2023/08/25 08:57:43;;;;;;;9.70;3.97;;;;;;;25.23;72.58;97564.13;6194525;28;21024;-56
2023/08/25 09:00:46;;;;;;;7.78;4.07;;;;;;;25.28;71.86;97559.25;6195587;28;20263;-55
2023/08/25 09:03:50;;;;;;;6.20;4.32;;;;;;;25.37;72.18;97562.66;6198244;28;20236;-56
2023/08/25 09:06:57;;;;;;;4.97;4.47;;;;;;;25.48;71.07;97550.16;6197693;28;20299;-56
2023/08/25 09:10:00;;;;;;;5.20;4.32;;;;;;;25.55;70.48;97543.31;6196728;28;20286;-56
2023/08/25 09:13:05;;;;;;;7.53;4.13;;;;;;;25.68;70.91;97540.22;6193178;28;20252;-56
2023/08/25 09:16:14;;;;;;;9.65;4.45;;;;;;;25.88;68.21;97538.50;6193712;28;20698;-56
2023/08/25 09:19:17;;;;;;;10.40;4.25;;;;;;;26.09;64.22;97530.13;6194851;28;20248;-56
2023/08/25 09:22:20;;;;;;;7.53;4.25;;;;;;;26.26;66.06;97544.66;6200285;28;20232;-55
2023/08/25 09:25:25;;;;;;;7.82;4.05;;;;;;;26.34;66.75;97544.47;6196053;28;20385;-56
2023/08/25 09:28:29;;;;;;;4.22;3.72;;;;;;;26.44;66.87;97544.00;6197792;28;20705;-56
2023/08/25 09:31:37;;;;;;;7.35;4.85;;;;;;;26.51;65.02;97532.50;6191525;28;20225;-56
2023/08/25 09:34:42;;;;;;;7.60;4.18;;;;;;;26.66;65.35;97533.66;6198246;28;20232;-55
2023/08/25 09:37:45;;;;;;;4.32;3.42;;;;;;;26.77;64.59;97526.53;6194899;28;20244;-55
2023/08/25 09:40:47;;;;;;;7.28;3.72;;;;;;;26.93;62.36;97526.53;6192633;28;20229;-55
2023/08/25 09:44:00;;;;;;;7.75;5.20;;;;;;;27.00;62.06;97529.47;6196810;28;20251;-55
2023/08/25 09:47:06;;;;;;;4.97;4.30;;;;;;;27.27;56.03;97539.50;6190734;28;20832;-55
2023/08/25 09:50:15;;;;;;;4.80;3.53;;;;;;;27.35;57.23;97528.75;6194204;28;20367;-55
2023/08/25 09:53:37;;;;;;;8.48;4.40;;;;;;;27.35;59.66;97526.00;6193264;28;20235;-56
2023/08/25 09:56:41;;;;;;;7.65;3.72;;;;;;;27.35;59.32;97526.00;6194857;28;20698;-54
2023/08/25 09:59:45;;;;;;;7.30;3.60;;;;;;;27.38;59.99;97525.28;6199103;28;20319;-56
2023/08/25 10:02:48;;;;;;;11.48;6.50;;;;;;;27.38;59.68;97528.81;6202618;28;20236;-55
2023/08/25 10:05:51;;;;;;;7.15;4.55;;;;;;;27.39;59.12;97526.88;6220876;28;20231;-55
2023/08/25 10:08:55;;;;;;;6.60;3.67;;;;;;;27.45;59.96;97515.31;6218010;28;20235;-56
2023/08/25 10:12:04;;;;;;;4.28;3.47;;;;;;;27.50;59.15;97506.81;6214817;28;21112;-55
2023/08/25 10:15:12;;;;;;;5.00;4.00;;;;;;;27.60;58.65;97505.47;6216698;28;20231;-56
2023/08/25 10:18:15;;;;;;;6.43;3.75;;;;;;;27.58;59.06;97483.13;6216345;28;20221;-55
2023/08/25 10:21:19;;;;;;;4.30;3.53;;;;;;;27.73;59.44;97506.16;6223106;28;20376;-56
2023/08/25 10:24:23;;;;;;;5.78;3.40;;;;;;;27.78;58.47;97505.88;6216892;28;20315;-54
2023/08/25 10:27:28;;;;;;;5.32;3.22;;;;;;;27.90;57.76;97507.69;6217966;28;20301;-55
2023/08/25 10:30:31;;;;;;;6.35;3.88;;;;;;;28.05;56.99;97497.81;6219799;28;20572;-55
2023/08/25 10:33:51;;;;;;;10.50;5.03;;;;;;;28.14;57.39;97492.94;6219357;28;20232;-55
2023/08/25 10:37:03;;;;;;;14.20;7.53;;;;;;;28.23;56.54;97488.81;6220270;28;20270;-55
2023/08/25 10:40:10;;;;;;;5.53;3.38;;;;;;;28.31;57.47;97492.47;6213203;28;20653;-55
2023/08/25 10:43:13;;;;;;;5.30;3.38;;;;;;;28.36;57.30;97489.44;6216701;28;20235;-55
2023/08/25 10:46:17;;;;;;;3.58;3.08;;;;;;;28.36;56.00;97472.22;6220784;28;20574;-55
2023/08/25 10:49:20;;;;;;;4.28;3.13;;;;;;;28.60;52.16;97485.56;6216493;28;20239;-55
2023/08/25 10:52:23;;;;;;;7.50;3.10;;;;;;;28.73;51.73;97489.72;6214274;28;20698;-56
2023/08/25 10:55:29;;;;;;;5.43;2.92;;;;;;;28.91;47.10;97487.28;6236555;28;20318;-56
2023/08/25 10:58:32;;;;;;;4.57;2.65;;;;;;;29.05;47.22;97481.25;6219699;28;20247;-56
2023/08/25 11:01:37;;;;;;;4.28;2.75;;;;;;;29.19;47.75;97483.44;6223028;28;20236;-56
2023/08/25 11:04:40;;;;;;;3.92;2.17;;;;;;;29.25;48.42;97482.75;6219569;28;20258;-57
2023/08/25 11:07:45;;;;;;;3.20;2.90;;;;;;;29.33;49.74;97480.91;6215505;28;20236;-57
2023/08/25 11:10:47;;;;;;;3.85;2.72;;;;;;;29.41;48.03;97479.84;6217818;28;20227;-57
2023/08/25 11:13:53;;;;;;;5.07;3.22;;;;;;;29.51;46.51;97481.94;6212334;28;20227;-57
2023/08/25 11:16:56;;;;;;;2.90;2.60;;;;;;;29.67;46.84;97475.53;6216543;28;20250;-57
2023/08/25 11:19:59;;;;;;;5.57;2.92;;;;;;;29.70;47.94;97483.78;6213855;28;20280;-57
2023/08/25 11:23:01;;;;;;;3.20;2.45;;;;;;;29.82;46.86;97474.53;6220819;28;20323;-56
2023/08/25 11:26:21;;;;;;;5.35;3.50;;;;;;;29.86;47.82;97467.13;6214867;28;20244;-57
2023/08/25 11:29:24;;;;;;;10.98;9.63;;;;;;;29.86;45.94;97466.34;6216517;28;20829;-56
2023/08/25 11:32:28;;;;;;;5.95;4.57;;;;;;;29.88;47.89;97473.03;6216398;28;20322;-56
2023/08/25 11:35:31;;;;;;;4.47;2.80;;;;;;;29.97;43.81;97461.75;6216578;28;20319;-56
2023/08/25 11:38:33;;;;;;;5.82;2.83;;;;;;;30.21;42.74;97466.00;6217798;28;20231;-56
2023/08/25 11:41:38;;;;;;;3.83;2.60;;;;;;;30.36;42.16;97473.22;6214035;28;20235;-56
2023/08/25 11:44:44;;;;;;;2.65;2.22;;;;;;;30.42;40.73;97471.69;6221212;28;20228;-56
2023/08/25 11:47:46;;;;;;;4.75;2.65;;;;;;;30.44;41.09;97463.84;6214764;28;20709;-56
2023/08/25 11:50:49;;;;;;;4.72;2.85;;;;;;;30.51;40.91;97465.91;6213945;28;20275;-56
2023/08/25 11:53:51;;;;;;;4.03;3.60;;;;;;;30.53;42.64;97464.34;6215020;28;20627;-56
2023/08/25 11:56:54;;;;;;;4.55;3.50;;;;;;;30.47;43.98;97465.84;6223873;28;20544;-56
2023/08/25 11:59:56;;;;;;;6.38;3.25;;;;;;;30.43;43.87;97462.28;6219234;28;20238;-56
2023/08/25 12:02:59;;;;;;;3.72;2.95;;;;;;;30.46;43.67;97469.78;6222022;28;20271;-56
2023/08/25 12:06:05;;;;;;;3.38;2.78;;;;;;;30.46;44.12;97469.78;6214754;28;20228;-56
2023/08/25 12:09:08;;;;;;;6.75;3.15;;;;;;;30.63;40.45;97462.06;6216226;28;20239;-56
2023/08/25 12:12:11;;;;;;;4.35;3.00;;;;;;;30.66;40.55;97464.06;6213508;28;20207;-56
2023/08/25 12:15:13;;;;;;;4.75;3.15;;;;;;;30.64;42.17;97463.63;6216560;28;20227;-56
2023/08/25 12:18:16;;;;;;;3.92;3.08;;;;;;;30.41;41.92;97420.63;6218626;28;20216;-56
2023/08/25 12:21:19;;;;;;;5.88;3.47;;;;;;;30.72;43.67;97468.84;6214566;28;20261;-56
2023/08/25 12:24:23;;;;;;;3.42;3.13;;;;;;;30.73;41.78;97466.91;6232327;28;20256;-56
2023/08/25 12:27:25;;;;;;;3.38;2.80;;;;;;;30.70;42.43;97471.22;6217113;28;20232;-56
2023/08/25 12:30:29;;;;;;;4.07;2.55;;;;;;;30.69;42.78;97458.59;6217860;28;20227;-56
2023/08/25 12:33:31;;;;;;;10.43;9.25;;;;;;;30.76;42.53;97457.91;6213693;28;20235;-55
2023/08/25 12:36:35;;;;;;;6.00;5.40;;;;;;;30.72;43.78;97455.13;6219699;28;20227;-57
2023/08/25 12:39:37;;;;;;;8.40;5.93;;;;;;;30.74;44.68;97461.03;6210707;28;20231;-56
2023/08/25 12:42:40;;;;;;;5.07;3.72;;;;;;;30.71;44.47;97444.50;6216720;28;20258;-55
2023/08/25 12:45:42;;;;;;;5.07;3.83;;;;;;;30.86;43.94;97451.69;6213512;28;20813;-56
2023/08/25 12:48:47;;;;;;;4.55;3.45;;;;;;;30.82;43.96;97459.13;6216653;28;20266;-56
2023/08/25 12:51:50;;;;;;;9.07;4.07;;;;;;;30.71;44.23;97452.75;6216875;28;20236;-56
2023/08/25 12:54:53;;;;;;;3.80;2.75;;;;;;;30.64;46.43;97449.88;6218797;28;20235;-56
2023/08/25 12:58:04;;;;;;;7.35;3.30;;;;;;;30.54;46.35;97443.13;6212795;28;20228;-56
2023/08/25 13:01:08;;;;;;;4.88;3.17;;;;;;;30.59;45.85;97440.03;6213939;28;20239;-56
2023/08/25 13:04:10;;;;;;;7.75;4.40;;;;;;;30.63;46.35;97432.59;6215612;28;20228;-56
2023/08/25 13:07:13;;;;;;;7.90;4.25;;;;;;;30.71;45.67;97436.25;6216125;28;20249;-54
2023/08/25 13:10:16;;;;;;;9.88;4.00;;;;;;;30.77;45.06;97426.47;6221915;28;20325;-56
2023/08/25 13:13:18;;;;;;;4.03;2.80;;;;;;;30.78;44.78;97433.53;6222269;28;20259;-56
2023/08/25 13:16:20;;;;;;;12.43;5.95;;;;;;;30.81;43.99;97425.31;6221010;28;20232;-56
2023/08/25 13:19:23;;;;;;;6.93;3.35;;;;;;;30.90;43.15;97427.75;6219062;28;20240;-56
2023/08/25 13:22:25;;;;;;;7.85;2.78;;;;;;;30.97;42.33;97422.28;6221855;28;20875;-55
2023/08/25 13:25:27;;;;;;;4.45;2.65;;;;;;;30.98;42.40;97415.59;6221419;28;20242;-56
2023/08/25 13:28:30;;;;;;;3.20;2.80;;;;;;;31.10;41.35;97425.53;6216563;28;20231;-55
2023/08/25 13:31:32;;;;;;;4.82;2.17;;;;;;;31.13;41.77;97418.47;6217132;28;20612;-55
2023/08/25 13:34:34;;;;;;;3.00;2.67;;;;;;;31.11;41.38;97416.09;6218167;28;20602;-55
2023/08/25 13:37:41;;;;;;;4.63;2.65;;;;;;;31.04;41.95;97411.34;6220213;28;20273;-55
2023/08/25 13:40:46;;;;;;;7.38;2.83;;;;;;;31.01;41.35;97416.81;6217172;28;20724;-55
2023/08/25 13:43:50;;;;;;;4.05;2.47;;;;;;;31.18;39.95;97420.84;6220709;28;20236;-56
2023/08/25 13:46:53;;;;;;;3.58;2.42;;;;;;;31.18;41.42;97416.13;6220912;28;20243;-55
2023/08/25 13:49:57;;;;;;;6.60;2.60;;;;;;;31.37;38.03;97422.56;6218121;28;20228;-55
2023/08/25 13:52:59;;;;;;;3.42;2.42;;;;;;;31.39;38.21;97418.25;6218535;28;20658;-56
2023/08/25 13:56:03;;;;;;;5.22;2.42;;;;;;;31.57;37.71;97432.09;6217249;28;20714;-55
2023/08/25 13:59:06;;;;;;;3.13;2.30;;;;;;;31.61;38.28;97435.66;6216870;28;20238;-55
2023/08/25 14:02:08;;;;;;;3.38;2.78;;;;;;;31.50;39.97;97429.31;6218711;28;20307;-56
2023/08/25 14:05:12;;;;;;;2.92;2.00;;;;;;;31.33;41.54;97441.84;6220466;28;20256;-55
2023/08/25 14:08:15;;;;;;;5.95;2.58;;;;;;;31.30;39.48;97437.09;6218422;28;20243;-56
2023/08/25 14:11:17;;;;;;;4.03;2.65;;;;;;;31.43;38.50;97445.78;6219507;28;20579;-56
2023/08/25 14:14:19;;;;;;;2.10;2.00;;;;;;;31.26;41.95;97439.81;6217796;28;20228;-55
2023/08/25 14:17:22;;;;;;;4.80;2.55;;;;;;;31.06;44.07;97432.97;6219530;28;20768;-55
2023/08/25 14:20:25;;;;;;;3.88;2.28;;;;;;;31.08;42.60;97419.59;6219607;28;20690;-56
2023/08/25 14:23:27;;;;;;;1.50;1.40;;;;;;;31.31;33.62;97406.41;6215733;28;20304;-56
2023/08/25 14:26:30;;;;;;;1.67;1.58;;;;;;;31.47;33.36;97408.84;6222990;28;20229;-56